^^
Grace C. Lehan Memorial Weather Station Historical Data
Daily Summary for November 22, 2021 Units:  Both    English   Metric
Daily Weekly Monthly Yearly
  High: Low: Average:
Temperature: 53.8 °F /  12.1 °C 34.6 °F /  1.4 °C 47.1 °F /  8.4 °C
Dew Point: 52.1 °F /  11.2 °C 24.9 °F /  -3.9 °C 40.5 °F /  4.7 °C
Humidity: 95% 57.5% 78%
Wind Speed: 8.2mph /  13.2km/h - 1.9mph /  3.1km/h
Wind Gust: 20mph /  32.2km/h - -
Wind- - WNW
Pressure: 29.90 in /  1012.4 hPa 29.74 in /  1007 hPa -
Precipitation: 0.07 in /  1.78 mm    
 
 
Tabular Data for November 22, 2021
Time Temperature Dew Point Pressure Wind Wind Speed Wind Gust Humidity Rainfall Rate (Hourly) solar
00:04 51.5 °F /  10.8 °C 50.1 °F /  10.1 °C 29.90in /  1012.4hPa South 0.7mph /  1.1km/h 6mph /  9.7km/h 95% 0.00in /  0mm 0 W/m2
00:09 51.6 °F /  10.9 °C 50.2 °F /  10.1 °C 29.90in /  1012.4hPa South 0.6mph /  1km/h 5mph /  8km/h 95% 0.00in /  0mm 0 W/m2
00:14 51.8 °F /  11 °C 50.4 °F /  10.2 °C 29.90in /  1012.4hPa South 0.9mph /  1.4km/h 6mph /  9.7km/h 95% 0.00in /  0mm 0 W/m2
00:19 51.9 °F /  11.1 °C 50.5 °F /  10.3 °C 29.90in /  1012.4hPa South 0.2mph /  0.3km/h 6mph /  9.7km/h 95% 0.00in /  0mm 0 W/m2
00:24 52 °F /  11.1 °C 50.7 °F /  10.4 °C 29.90in /  1012.4hPa South 0.1mph /  0.2km/h 6mph /  9.7km/h 95% 0.00in /  0mm 0 W/m2
00:29 52.2 °F /  11.2 °C 50.8 °F /  10.4 °C 29.90in /  1012.4hPa South 0.9mph /  1.4km/h 6mph /  9.7km/h 95% 0.00in /  0mm 0 W/m2
00:34 52.4 °F /  11.3 °C 51 °F /  10.6 °C 29.89in /  1012.1hPa South 1mph /  1.6km/h 6mph /  9.7km/h 95% 0.00in /  0mm 0 W/m2
00:39 52.6 °F /  11.4 °C 51.2 °F /  10.7 °C 29.89in /  1012.1hPa South 0.8mph /  1.3km/h 5mph /  8km/h 95% 0.00in /  0mm 0 W/m2
00:44 52.7 °F /  11.5 °C 51.3 °F /  10.7 °C 29.89in /  1012.1hPa South 0.1mph /  0.2km/h 5mph /  8km/h 95% 0.00in /  0mm 0 W/m2
00:49 52.8 °F /  11.6 °C 51.5 °F /  10.8 °C 29.88in /  1011.7hPa South 0.1mph /  0.2km/h 5mph /  8km/h 95% 0.00in /  0mm 0 W/m2
00:54 53 °F /  11.7 °C 51.6 °F /  10.9 °C 29.88in /  1011.7hPa South 0.9mph /  1.4km/h 5mph /  8km/h 95% 0.00in /  0mm 0 W/m2
00:59 53 °F /  11.7 °C 51.6 °F /  10.9 °C 29.88in /  1011.7hPa South 0.5mph /  0.8km/h 5mph /  8km/h 95% 0.00in /  0mm 0 W/m2
01:04 53.1 °F /  11.7 °C 51.7 °F /  10.9 °C 29.88in /  1011.7hPa Calm   5mph /  8km/h 95% 0.00in /  0mm 0 W/m2
01:09 53.1 °F /  11.7 °C 51.7 °F /  10.9 °C 29.87in /  1011.4hPa SSW 0.7mph /  1.1km/h 5mph /  8km/h 95% 0.00in /  0mm 0 W/m2
01:14 53.2 °F /  11.8 °C 51.8 °F /  11 °C 29.87in /  1011.4hPa SSW 0.1mph /  0.2km/h 5mph /  8km/h 95% 0.00in /  0mm 0 W/m2
01:19 53.2 °F /  11.8 °C 51.8 °F /  11 °C 29.87in /  1011.4hPa Calm   5mph /  8km/h 95% 0.00in /  0mm 0 W/m2
01:24 53.2 °F /  11.8 °C 51.8 °F /  11 °C 29.87in /  1011.4hPa SSW 0.9mph /  1.4km/h 10mph /  16.1km/h 95% 0.00in /  0mm 0 W/m2
01:29 53.3 °F /  11.8 °C 51.9 °F /  11.1 °C 29.87in /  1011.4hPa SSW 0.2mph /  0.3km/h 10mph /  16.1km/h 95% 0.00in /  0mm 0 W/m2
01:34 53.3 °F /  11.8 °C 51.9 °F /  11.1 °C 29.87in /  1011.4hPa Calm   10mph /  16.1km/h 95% 0.00in /  0mm 0 W/m2
01:39 53.4 °F /  11.9 °C 51.9 °F /  11.1 °C 29.86in /  1011.1hPa Calm     94.6% 0.00in /  0mm 0 W/m2
01:44 53.5 °F /  11.9 °C 51.8 °F /  11 °C 29.85in /  1010.7hPa SSW 0.6mph /  1km/h 4mph /  6.4km/h 94% 0.00in /  0mm 0 W/m2
01:49 53.5 °F /  11.9 °C 51.8 °F /  11 °C 29.85in /  1010.7hPa SSW 0.4mph /  0.6km/h 4mph /  6.4km/h 94% 0.00in /  0mm 0 W/m2
01:54 53.6 °F /  12 °C 51.9 °F /  11.1 °C 29.84in /  1010.4hPa SSW 0.2mph /  0.3km/h 4mph /  6.4km/h 94% 0.00in /  0mm 0 W/m2
01:59 53.7 °F /  12.1 °C 52 °F /  11.1 °C 29.84in /  1010.4hPa SSW 0.3mph /  0.5km/h 4mph /  6.4km/h 94% 0.00in /  0mm 0 W/m2
02:04 53.7 °F /  12.1 °C 52 °F /  11.1 °C 29.84in /  1010.4hPa Calm   4mph /  6.4km/h 94% 0.00in /  0mm 0 W/m2
02:09 53.8 °F /  12.1 °C 52.1 °F /  11.2 °C 29.84in /  1010.4hPa Calm   2mph /  3.2km/h 94% 0.00in /  0mm 0 W/m2
02:14 53.7 °F /  12.1 °C 52.1 °F /  11.2 °C 29.84in /  1010.4hPa SSW 0.1mph /  0.2km/h 3mph /  4.8km/h 94% 0.00in /  0mm 0 W/m2
02:19 53.7 °F /  12.1 °C 52 °F /  11.1 °C 29.84in /  1010.4hPa SSW 0.3mph /  0.5km/h 3mph /  4.8km/h 94% 0.00in /  0mm 0 W/m2
02:24 53.7 °F /  12.1 °C 52 °F /  11.1 °C 29.83in /  1010hPa Calm   3mph /  4.8km/h 94% 0.00in /  0mm 0 W/m2
02:29 53.7 °F /  12.1 °C 52 °F /  11.1 °C 29.83in /  1010hPa Calm   3mph /  4.8km/h 94% 0.00in /  0mm 0 W/m2
02:34 53.7 °F /  12.1 °C 52 °F /  11.1 °C 29.83in /  1010hPa Calm   3mph /  4.8km/h 94% 0.00in /  0mm 0 W/m2
02:39 53.7 °F /  12.1 °C 52 °F /  11.1 °C 29.83in /  1010hPa Calm     94% 0.00in /  0mm 0 W/m2
02:44 53.6 °F /  12 °C 51.9 °F /  11.1 °C 29.82in /  1009.7hPa Calm     94% 0.00in /  0mm 0 W/m2
02:49 53.6 °F /  12 °C 51.9 °F /  11.1 °C 29.82in /  1009.7hPa Calm     94% 0.00in /  0mm 0 W/m2
02:54 53.5 °F /  11.9 °C 51.8 °F /  11 °C 29.82in /  1009.7hPa Calm     94% 0.00in /  0mm 0 W/m2
02:59 53.5 °F /  11.9 °C 51.8 °F /  11 °C 29.82in /  1009.7hPa Calm     94% 0.00in /  0mm 0 W/m2
03:04 53.4 °F /  11.9 °C 51.7 °F /  10.9 °C 29.81in /  1009.4hPa Calm     94% 0.00in /  0mm 0 W/m2
03:09 53.4 °F /  11.9 °C 51.7 °F /  10.9 °C 29.81in /  1009.4hPa Calm     94% 0.00in /  0mm 0 W/m2
03:14 53.4 °F /  11.9 °C 51.7 °F /  10.9 °C 29.81in /  1009.4hPa Calm     94% 0.00in /  0mm 0 W/m2
03:19 53.4 °F /  11.9 °C 51.7 °F /  10.9 °C 29.81in /  1009.4hPa Calm     94% 0.00in /  0mm 0 W/m2
03:24 53.4 °F /  11.9 °C 51.7 °F /  10.9 °C 29.80in /  1009hPa SSW 0.7mph /  1.1km/h 8mph /  12.9km/h 94% 0.00in /  0mm 0 W/m2
03:29 53.4 °F /  11.9 °C 51.7 °F /  10.9 °C 29.80in /  1009hPa Calm   8mph /  12.9km/h 94% 0.00in /  0mm 0 W/m2
03:34 53.3 °F /  11.8 °C 51.6 °F /  10.9 °C 29.80in /  1009hPa Calm   8mph /  12.9km/h 94% 0.00in /  0mm 0 W/m2
03:39 53.3 °F /  11.8 °C 51.3 °F /  10.7 °C 29.80in /  1009hPa SSW 1.3mph /  2.1km/h 9mph /  14.5km/h 93.1% 0.00in /  0mm 0 W/m2
03:44 53.2 °F /  11.8 °C 51.2 °F /  10.7 °C 29.80in /  1009hPa SW 0.2mph /  0.3km/h 9mph /  14.5km/h 93% 0.00in /  0mm 0 W/m2
03:49 53.2 °F /  11.8 °C 51.2 °F /  10.7 °C 29.80in /  1009hPa SW 1.3mph /  2.1km/h 9mph /  14.5km/h 93% 0.00in /  0mm 0 W/m2
03:54 53.1 °F /  11.7 °C 51.2 °F /  10.7 °C 29.80in /  1009hPa SW 1.6mph /  2.6km/h 9mph /  14.5km/h 93% 0.00in /  0mm 0 W/m2
03:59 53.1 °F /  11.7 °C 51.2 °F /  10.7 °C 29.79in /  1008.7hPa SW 0.9mph /  1.4km/h 9mph /  14.5km/h 93% 0.00in /  0mm 0 W/m2
04:00 53.2 °F /  11.8 °C 51.2 °F /  10.7 °C 29.79in /  1008.7hPa SW 1mph /  1.6km/h 9mph /  14.5km/h 93% 0.00in /  0mm 0 W/m2
04:09 53.2 °F /  11.8 °C 51 °F /  10.6 °C 29.79in /  1008.7hPa SW 1.5mph /  2.4km/h 8mph /  12.9km/h 92% 0.00in /  0mm 0 W/m2
04:14 53.3 °F /  11.8 °C 50.9 °F /  10.5 °C 29.79in /  1008.7hPa SW 2.5mph /  4km/h 9mph /  14.5km/h 91.7% 0.00in /  0mm 0 W/m2
04:19 53.4 °F /  11.9 °C 50.8 °F /  10.4 °C 29.79in /  1008.7hPa SW 2.7mph /  4.3km/h 9mph /  14.5km/h 91% 0.00in /  0mm 0 W/m2
04:24 53.5 °F /  11.9 °C 50.8 °F /  10.4 °C 29.79in /  1008.7hPa SW 2mph /  3.2km/h 9mph /  14.5km/h 90.7% 0.00in /  0mm 0 W/m2
04:29 53.5 °F /  11.9 °C 50.6 °F /  10.3 °C 29.79in /  1008.7hPa SW 1.1mph /  1.8km/h 9mph /  14.5km/h 90% 0.00in /  0mm 0 W/m2
04:34 53.5 °F /  11.9 °C 50.6 °F /  10.3 °C 29.79in /  1008.7hPa SW 1.8mph /  2.9km/h 9mph /  14.5km/h 90% 0.00in /  0mm 0 W/m2
04:39 53.5 °F /  11.9 °C 50.4 °F /  10.2 °C 29.79in /  1008.7hPa SW 2.2mph /  3.5km/h 6mph /  9.7km/h 89.1% 0.00in /  0mm 0 W/m2
04:44 53.5 °F /  11.9 °C 50.1 °F /  10.1 °C 29.79in /  1008.7hPa SW 1.7mph /  2.7km/h 6mph /  9.7km/h 88.3% 0.00in /  0mm 0 W/m2
04:49 53.5 °F /  11.9 °C 50.1 °F /  10.1 °C 29.79in /  1008.7hPa SW 1.4mph /  2.3km/h 6mph /  9.7km/h 88% 0.00in /  0mm 0 W/m2
04:54 53.6 °F /  12 °C 50.1 °F /  10.1 °C 29.79in /  1008.7hPa WSW 2mph /  3.2km/h 11mph /  17.7km/h 88% 0.00in /  0mm 0 W/m2
04:59 53.6 °F /  12 °C 50 °F /  10 °C 29.79in /  1008.7hPa WSW 1.1mph /  1.8km/h 11mph /  17.7km/h 87.5% 0.00in /  0mm 0 W/m2
05:04 53.5 °F /  11.9 °C 49.8 °F /  9.9 °C 29.79in /  1008.7hPa WSW 1.3mph /  2.1km/h 11mph /  17.7km/h 87% 0.00in /  0mm 0 W/m2
05:09 53.5 °F /  11.9 °C 49.7 °F /  9.8 °C 29.78in /  1008.4hPa WSW 1.5mph /  2.4km/h 5mph /  8km/h 87% 0.00in /  0mm 0 W/m2
05:14 53.5 °F /  11.9 °C 49.4 °F /  9.7 °C 29.78in /  1008.4hPa Calm   5mph /  8km/h 86.1% 0.00in /  0mm 0 W/m2
05:19 53.4 °F /  11.9 °C 49.3 °F /  9.6 °C 29.79in /  1008.7hPa WSW 0.8mph /  1.3km/h 5mph /  8km/h 86% 0.00in /  0mm 0 W/m2
05:24 53.3 °F /  11.8 °C 49.3 °F /  9.6 °C 29.79in /  1008.7hPa SW 1.1mph /  1.8km/h 5mph /  8km/h 86% 0.00in /  0mm 0 W/m2
05:29 53.3 °F /  11.8 °C 49.2 °F /  9.6 °C 29.79in /  1008.7hPa WSW 1.1mph /  1.8km/h 11mph /  17.7km/h 86% 0.00in /  0mm 0 W/m2
05:34 53.3 °F /  11.8 °C 49.2 °F /  9.6 °C 29.79in /  1008.7hPa WSW 0.4mph /  0.6km/h 11mph /  17.7km/h 86% 0.00in /  0mm 0 W/m2
05:39 53.3 °F /  11.8 °C 49.2 °F /  9.6 °C 29.80in /  1009hPa WSW 0.9mph /  1.4km/h 10mph /  16.1km/h 86% 0.01in /  0.25mm 0 W/m2
05:44 53.2 °F /  11.8 °C 49.1 °F /  9.5 °C 29.79in /  1008.7hPa WSW 1.1mph /  1.8km/h 10mph /  16.1km/h 86% 0.01in /  0.25mm 0 W/m2
05:49 53.1 °F /  11.7 °C 49 °F /  9.4 °C 29.79in /  1008.7hPa Calm   10mph /  16.1km/h 86% 0.01in /  0.25mm 0 W/m2
05:54 53 °F /  11.7 °C 49.1 °F /  9.5 °C 29.79in /  1008.7hPa WSW 0.1mph /  0.2km/h 10mph /  16.1km/h 86.7% 0.01in /  0.25mm 0 W/m2
05:59 52.9 °F /  11.6 °C 49.1 °F /  9.5 °C 29.79in /  1008.7hPa WSW 0.1mph /  0.2km/h 10mph /  16.1km/h 87% 0.01in /  0.25mm 0 W/m2
06:04 52.7 °F /  11.5 °C 48.9 °F /  9.4 °C 29.79in /  1008.7hPa Calm   10mph /  16.1km/h 87% 0.02in /  0.51mm 0 W/m2
06:09 52.4 °F /  11.3 °C 49 °F /  9.4 °C 29.79in /  1008.7hPa Calm     88% 0.02in /  0.51mm 0 W/m2
06:14 52.2 °F /  11.2 °C 48.8 °F /  9.3 °C 29.79in /  1008.7hPa Calm     88% 0.02in /  0.51mm 0 W/m2
06:19 52 °F /  11.1 °C 48.5 °F /  9.2 °C 29.79in /  1008.7hPa Calm     88% 0.02in /  0.51mm 0 W/m2
06:24 51.8 °F /  11 °C 48.6 °F /  9.2 °C 29.79in /  1008.7hPa WSW 0.1mph /  0.2km/h 3mph /  4.8km/h 88.9% 0.03in /  0.76mm 0 W/m2
06:29 51.5 °F /  10.8 °C 48.4 °F /  9.1 °C 29.79in /  1008.7hPa SW 0.3mph /  0.5km/h 4mph /  6.4km/h 89% 0.03in /  0.76mm 0 W/m2
06:34 51.4 °F /  10.8 °C 48.2 °F /  9 °C 29.79in /  1008.7hPa Calm   4mph /  6.4km/h 89% 0.03in /  0.76mm 0 W/m2
06:39 51.2 °F /  10.7 °C 48.1 °F /  8.9 °C 29.79in /  1008.7hPa SW 0.1mph /  0.2km/h 2mph /  3.2km/h 89.2% 0.03in /  0.76mm 0 W/m2
06:44 51 °F /  10.6 °C 48.2 °F /  9 °C 29.79in /  1008.7hPa SW 0.3mph /  0.5km/h 3mph /  4.8km/h 90% 0.03in /  0.76mm 0 W/m2
06:49 50.9 °F /  10.5 °C 48.1 °F /  8.9 °C 29.79in /  1008.7hPa SW 0.2mph /  0.3km/h 3mph /  4.8km/h 90% 0.03in /  0.76mm 0 W/m2
06:54 50.8 °F /  10.4 °C 47.9 °F /  8.8 °C 29.79in /  1008.7hPa SW 0.2mph /  0.3km/h 3mph /  4.8km/h 90% 0.04in /  1.02mm 0 W/m2
06:59 50.7 °F /  10.4 °C 48.1 °F /  8.9 °C 29.79in /  1008.7hPa SW 0.5mph /  0.8km/h 4mph /  6.4km/h 90.9% 0.04in /  1.02mm 0 W/m2
07:04 50.5 °F /  10.3 °C 48 °F /  8.9 °C 29.79in /  1008.7hPa SW 0.6mph /  1km/h 4mph /  6.4km/h 91% 0.04in /  1.02mm 0 W/m2
07:09 50.4 °F /  10.2 °C 47.9 °F /  8.8 °C 29.79in /  1008.7hPa SW 0.4mph /  0.6km/h 5mph /  8km/h 91% 0.04in /  1.02mm 0 W/m2
07:14 50.3 °F /  10.2 °C 47.8 °F /  8.8 °C 29.79in /  1008.7hPa SW 0.4mph /  0.6km/h 7mph /  11.3km/h 91% 0.04in /  1.02mm 0 W/m2
07:19 50.2 °F /  10.1 °C 47.6 °F /  8.7 °C 29.80in /  1009hPa SW 0.3mph /  0.5km/h 7mph /  11.3km/h 91% 0.05in /  1.27mm 0 W/m2
07:24 50.1 °F /  10.1 °C 47.7 °F /  8.7 °C 29.80in /  1009hPa Calm   7mph /  11.3km/h 91.5% 0.05in /  1.27mm 0 W/m2
07:29 50 °F /  10 °C 47.6 °F /  8.7 °C 29.79in /  1008.7hPa Calm   7mph /  11.3km/h 91.5% 0.05in /  1.27mm 0 W/m2
07:34 49.9 °F /  9.9 °C 47.7 °F /  8.7 °C 29.80in /  1009hPa Calm   7mph /  11.3km/h 92% 0.05in /  1.27mm 0 W/m2
07:39 49.9 °F /  9.9 °C 47.6 °F /  8.7 °C 29.80in /  1009hPa Calm     92% 0.04in /  1.02mm 12 W/m2
07:44 49.8 °F /  9.9 °C 47.6 °F /  8.7 °C 29.80in /  1009hPa Calm     92% 0.04in /  1.02mm 16 W/m2
07:49 49.7 °F /  9.8 °C 47.5 °F /  8.6 °C 29.79in /  1008.7hPa SW 0.1mph /  0.2km/h 2mph /  3.2km/h 92% 0.04in /  1.02mm 19 W/m2
07:54 49.7 °F /  9.8 °C 47.6 °F /  8.7 °C 29.79in /  1008.7hPa SW 0.2mph /  0.3km/h 3mph /  4.8km/h 92.6% 0.04in /  1.02mm 19 W/m2
07:59 49.7 °F /  9.8 °C 47.4 °F /  8.6 °C 29.79in /  1008.7hPa SW 0.4mph /  0.6km/h 4mph /  6.4km/h 92% 0.04in /  1.02mm 23 W/m2
08:00 49.6 °F /  9.8 °C 47.4 °F /  8.6 °C 29.79in /  1008.7hPa Calm   4mph /  6.4km/h 92% 0.04in /  1.02mm 23 W/m2
08:09 49.4 °F /  9.7 °C 47.2 °F /  8.4 °C 29.80in /  1009hPa SW 0.2mph /  0.3km/h 3mph /  4.8km/h 92% 0.03in /  0.76mm 28 W/m2
08:14 49.3 °F /  9.6 °C 47.1 °F /  8.4 °C 29.80in /  1009hPa Calm   3mph /  4.8km/h 92% 0.03in /  0.76mm 33 W/m2
08:19 49.1 °F /  9.5 °C 46.9 °F /  8.3 °C 29.80in /  1009hPa SW 0.2mph /  0.3km/h 3mph /  4.8km/h 92% 0.03in /  0.76mm 42 W/m2
08:24 49.1 °F /  9.5 °C 46.9 °F /  8.3 °C 29.80in /  1009hPa Calm   3mph /  4.8km/h 92% 0.03in /  0.76mm 44 W/m2
08:29 49 °F /  9.4 °C 46.8 °F /  8.2 °C 29.80in /  1009hPa Calm   3mph /  4.8km/h 92% 0.03in /  0.76mm 47 W/m2
08:34 49 °F /  9.4 °C 46.8 °F /  8.2 °C 29.80in /  1009hPa SW 0.1mph /  0.2km/h 3mph /  4.8km/h 92% 0.03in /  0.76mm 49 W/m2
08:39 49 °F /  9.4 °C 46.8 °F /  8.2 °C 29.80in /  1009hPa SW 0.1mph /  0.2km/h 2mph /  3.2km/h 92% 0.01in /  0.25mm 51 W/m2
08:44 49 °F /  9.4 °C 46.8 °F /  8.2 °C 29.79in /  1008.7hPa Calm   2mph /  3.2km/h 92% 0.01in /  0.25mm 51 W/m2
08:49 49 °F /  9.4 °C 46.8 °F /  8.2 °C 29.80in /  1009hPa Calm   2mph /  3.2km/h 92% 0.01in /  0.25mm 51 W/m2
08:54 49 °F /  9.4 °C 46.8 °F /  8.2 °C 29.80in /  1009hPa SW 0.1mph /  0.2km/h 3mph /  4.8km/h 92% 0.01in /  0.25mm 54 W/m2
08:59 49 °F /  9.4 °C 46.8 °F /  8.2 °C 29.79in /  1008.7hPa WSW 0.4mph /  0.6km/h 5mph /  8km/h 92% 0.01in /  0.25mm 56 W/m2
09:04 49 °F /  9.4 °C 46.8 °F /  8.2 °C 29.79in /  1008.7hPa Calm   5mph /  8km/h 92% 0.01in /  0.25mm 62 W/m2
09:09 49 °F /  9.4 °C 46.8 °F /  8.2 °C 29.79in /  1008.7hPa WSW 0.1mph /  0.2km/h 2mph /  3.2km/h 92% 0.00in /  0mm 67 W/m2
09:14 49 °F /  9.4 °C 46.8 °F /  8.2 °C 29.79in /  1008.7hPa WSW 0.1mph /  0.2km/h 2mph /  3.2km/h 92% 0.00in /  0mm 77 W/m2
09:19 49 °F /  9.4 °C 46.7 °F /  8.2 °C 29.79in /  1008.7hPa WSW 0.1mph /  0.2km/h 3mph /  4.8km/h 91.5% 0.00in /  0mm 90 W/m2
09:24 49.1 °F /  9.5 °C 46.6 °F /  8.1 °C 29.79in /  1008.7hPa WSW 0.2mph /  0.3km/h 3mph /  4.8km/h 91% 0.00in /  0mm 105 W/m2
09:29 49.3 °F /  9.6 °C 46.7 °F /  8.2 °C 29.79in /  1008.7hPa WSW 0.1mph /  0.2km/h 3mph /  4.8km/h 91% 0.00in /  0mm 109 W/m2
09:34 49.4 °F /  9.7 °C 46.9 °F /  8.3 °C 29.79in /  1008.7hPa WSW 0.1mph /  0.2km/h 3mph /  4.8km/h 91.1% 0.00in /  0mm 109 W/m2
09:39 49.6 °F /  9.8 °C 47.3 °F /  8.5 °C 29.79in /  1008.7hPa Calm   3mph /  4.8km/h 91.9% 0.00in /  0mm 120 W/m2
09:44 49.6 °F /  9.8 °C 47.1 °F /  8.4 °C 29.79in /  1008.7hPa WSW 0.8mph /  1.3km/h 6mph /  9.7km/h 91% 0.00in /  0mm 125 W/m2
09:49 49.7 °F /  9.8 °C 47.2 °F /  8.4 °C 29.79in /  1008.7hPa Calm   6mph /  9.7km/h 91% 0.00in /  0mm 142 W/m2
09:54 49.8 °F /  9.9 °C 47.1 °F /  8.4 °C 29.79in /  1008.7hPa WSW 0.1mph /  0.2km/h 6mph /  9.7km/h 90.3% 0.00in /  0mm 181 W/m2
09:59 50 °F /  10 °C 47.2 °F /  8.4 °C 29.78in /  1008.4hPa WSW 0.7mph /  1.1km/h 6mph /  9.7km/h 90% 0.00in /  0mm 186 W/m2
10:04 50.1 °F /  10.1 °C 47.2 °F /  8.4 °C 29.78in /  1008.4hPa West 2mph /  3.2km/h 8mph /  12.9km/h 89.6% 0.00in /  0mm 192 W/m2
10:09 50.3 °F /  10.2 °C 47 °F /  8.3 °C 29.78in /  1008.4hPa West 1.8mph /  2.9km/h 8mph /  12.9km/h 88.6% 0.00in /  0mm 193 W/m2
10:14 50.4 °F /  10.2 °C 47 °F /  8.3 °C 29.78in /  1008.4hPa West 1.9mph /  3.1km/h 9mph /  14.5km/h 88% 0.00in /  0mm 190 W/m2
10:19 50.6 °F /  10.3 °C 46.9 °F /  8.3 °C 29.78in /  1008.4hPa Calm   9mph /  14.5km/h 87% 0.00in /  0mm 190 W/m2
10:24 50.8 °F /  10.4 °C 47 °F /  8.3 °C 29.78in /  1008.4hPa WSW 1.4mph /  2.3km/h 9mph /  14.5km/h 86.6% 0.00in /  0mm 171 W/m2
10:29 50.9 °F /  10.5 °C 46.6 °F /  8.1 °C 29.78in /  1008.4hPa WSW 0.2mph /  0.3km/h 9mph /  14.5km/h 85.1% 0.00in /  0mm 151 W/m2
10:34 50.9 °F /  10.5 °C 46.6 °F /  8.1 °C 29.78in /  1008.4hPa WSW 0.1mph /  0.2km/h 9mph /  14.5km/h 85% 0.00in /  0mm 134 W/m2
10:39 51 °F /  10.6 °C 46.5 °F /  8.1 °C 29.78in /  1008.4hPa West 2.5mph /  4km/h 7mph /  11.3km/h 84.7% 0.00in /  0mm 137 W/m2
10:44 50.9 °F /  10.5 °C 46 °F /  7.8 °C 29.77in /  1008hPa West 1.9mph /  3.1km/h 9mph /  14.5km/h 83.4% 0.00in /  0mm 155 W/m2
10:49 50.8 °F /  10.4 °C 45.8 °F /  7.7 °C 29.77in /  1008hPa West 1.8mph /  2.9km/h 9mph /  14.5km/h 83% 0.00in /  0mm 156 W/m2
10:54 50.8 °F /  10.4 °C 45.8 °F /  7.7 °C 29.77in /  1008hPa West 0.3mph /  0.5km/h 9mph /  14.5km/h 83% 0.00in /  0mm 162 W/m2
10:59 50.9 °F /  10.5 °C 45.9 °F /  7.7 °C 29.76in /  1007.7hPa West 1.8mph /  2.9km/h 9mph /  14.5km/h 83% 0.00in /  0mm 160 W/m2
11:04 51 °F /  10.6 °C 45.7 °F /  7.6 °C 29.76in /  1007.7hPa West 0.4mph /  0.6km/h 9mph /  14.5km/h 82% 0.00in /  0mm 169 W/m2
11:09 51.1 °F /  10.6 °C 45.9 °F /  7.7 °C 29.77in /  1008hPa West 1.3mph /  2.1km/h 8mph /  12.9km/h 82.4% 0.00in /  0mm 172 W/m2
11:14 51.2 °F /  10.7 °C 45.6 °F /  7.6 °C 29.77in /  1008hPa West 0.3mph /  0.5km/h 8mph /  12.9km/h 81.2% 0.00in /  0mm 171 W/m2
11:19 51.3 °F /  10.7 °C 45.6 °F /  7.6 °C 29.77in /  1008hPa West 0.3mph /  0.5km/h 8mph /  12.9km/h 81% 0.00in /  0mm 165 W/m2
11:24 51.3 °F /  10.7 °C 45.7 °F /  7.6 °C 29.76in /  1007.7hPa Calm   8mph /  12.9km/h 81% 0.00in /  0mm 176 W/m2
11:29 51.5 °F /  10.8 °C 45.9 °F /  7.7 °C 29.76in /  1007.7hPa West 0.4mph /  0.6km/h 8mph /  12.9km/h 81% 0.00in /  0mm 181 W/m2
11:34 51.7 °F /  10.9 °C 46 °F /  7.8 °C 29.76in /  1007.7hPa West 1.1mph /  1.8km/h 8mph /  12.9km/h 80.8% 0.00in /  0mm 176 W/m2
11:39 51.8 °F /  11 °C 45.7 °F /  7.6 °C 29.76in /  1007.7hPa West 1.8mph /  2.9km/h 6mph /  9.7km/h 79.5% 0.00in /  0mm 165 W/m2
11:44 51.8 °F /  11 °C 45.2 °F /  7.3 °C 29.76in /  1007.7hPa West 2.6mph /  4.2km/h 10mph /  16.1km/h 78% 0.00in /  0mm 167 W/m2
11:49 51.8 °F /  11 °C 45.2 °F /  7.3 °C 29.76in /  1007.7hPa West 0.5mph /  0.8km/h 10mph /  16.1km/h 78% 0.00in /  0mm 167 W/m2
11:54 51.9 °F /  11.1 °C 45.2 °F /  7.3 °C 29.76in /  1007.7hPa West 1.4mph /  2.3km/h 10mph /  16.1km/h 77.9% 0.00in /  0mm 169 W/m2
11:59 51.9 °F /  11.1 °C 44.9 °F /  7.2 °C 29.75in /  1007.3hPa West 0.7mph /  1.1km/h 10mph /  16.1km/h 76.8% 0.00in /  0mm 171 W/m2
12:00 51.9 °F /  11.1 °C 44.9 °F /  7.2 °C 29.75in /  1007.3hPa Calm   10mph /  16.1km/h 77% 0.00in /  0mm 167 W/m2
12:09 52 °F /  11.1 °C 44.5 °F /  6.9 °C 29.75in /  1007.3hPa West 1.9mph /  3.1km/h 7mph /  11.3km/h 75.4% 0.00in /  0mm 174 W/m2
12:14 52.1 °F /  11.2 °C 44.4 °F /  6.9 °C 29.75in /  1007.3hPa West 1.4mph /  2.3km/h 7mph /  11.3km/h 75% 0.00in /  0mm 183 W/m2
12:19 52.2 °F /  11.2 °C 45.1 °F /  7.3 °C 29.75in /  1007.3hPa West 0.3mph /  0.5km/h 7mph /  11.3km/h 76.6% 0.00in /  0mm 183 W/m2
12:24 52.5 °F /  11.4 °C 45.1 °F /  7.3 °C 29.75in /  1007.3hPa WNW 3.9mph /  6.3km/h 7mph /  11.3km/h 75.8% 0.00in /  0mm 178 W/m2
12:29 52.6 °F /  11.4 °C 44.8 °F /  7.1 °C 29.75in /  1007.3hPa WNW 0.6mph /  1km/h 7mph /  11.3km/h 74.6% 0.00in /  0mm 163 W/m2
12:34 52.8 °F /  11.6 °C 44.9 °F /  7.2 °C 29.74in /  1007hPa WNW 1.2mph /  1.9km/h 7mph /  11.3km/h 74.4% 0.00in /  0mm 165 W/m2
12:39 52.9 °F /  11.6 °C 44.7 °F /  7.1 °C 29.74in /  1007hPa WNW 0.4mph /  0.6km/h 6mph /  9.7km/h 73.6% 0.00in /  0mm 163 W/m2
12:44 53 °F /  11.7 °C 44.5 °F /  6.9 °C 29.74in /  1007hPa WNW 2.8mph /  4.5km/h 10mph /  16.1km/h 72.8% 0.00in /  0mm 163 W/m2
12:49 53 °F /  11.7 °C 43.9 °F /  6.6 °C 29.74in /  1007hPa WNW 1.7mph /  2.7km/h 10mph /  16.1km/h 71% 0.00in /  0mm 162 W/m2
12:54 53 °F /  11.7 °C 43.8 °F /  6.6 °C 29.74in /  1007hPa WNW 0.6mph /  1km/h 10mph /  16.1km/h 71% 0.00in /  0mm 162 W/m2
12:59 53.1 °F /  11.7 °C 43.8 °F /  6.6 °C 29.74in /  1007hPa WNW 2mph /  3.2km/h 10mph /  16.1km/h 70.7% 0.00in /  0mm 153 W/m2
13:04 53 °F /  11.7 °C 43.1 °F /  6.2 °C 29.74in /  1007hPa WNW 2.5mph /  4km/h 10mph /  16.1km/h 68.9% 0.00in /  0mm 144 W/m2
13:09 53 °F /  11.7 °C 43.1 °F /  6.2 °C 29.74in /  1007hPa WNW 3.2mph /  5.1km/h 8mph /  12.9km/h 69% 0.00in /  0mm 142 W/m2
13:14 52.8 °F /  11.6 °C 42.7 °F /  5.9 °C 29.74in /  1007hPa WNW 3.4mph /  5.5km/h 11mph /  17.7km/h 68.5% 0.00in /  0mm 137 W/m2
13:19 52.6 °F /  11.4 °C 42.6 °F /  5.9 °C 29.74in /  1007hPa WNW 2.5mph /  4km/h 11mph /  17.7km/h 68.7% 0.00in /  0mm 128 W/m2
13:24 52.5 °F /  11.4 °C 42.6 °F /  5.9 °C 29.74in /  1007hPa WNW 3.3mph /  5.3km/h 11mph /  17.7km/h 69% 0.00in /  0mm 120 W/m2
13:29 52.3 °F /  11.3 °C 42.6 °F /  5.9 °C 29.74in /  1007hPa WNW 2mph /  3.2km/h 11mph /  17.7km/h 69.3% 0.00in /  0mm 113 W/m2
13:34 52.2 °F /  11.2 °C 42.8 °F /  6 °C 29.74in /  1007hPa WNW 0.2mph /  0.3km/h 11mph /  17.7km/h 70.1% 0.00in /  0mm 105 W/m2
13:39 52.2 °F /  11.2 °C 42.8 °F /  6 °C 29.74in /  1007hPa WNW 1.1mph /  1.8km/h 6mph /  9.7km/h 70.3% 0.00in /  0mm 93 W/m2
13:44 52.1 °F /  11.2 °C 42.6 °F /  5.9 °C 29.74in /  1007hPa NW 2.4mph /  3.9km/h 11mph /  17.7km/h 70% 0.00in /  0mm 91 W/m2
13:49 52 °F /  11.1 °C 42.3 °F /  5.7 °C 29.74in /  1007hPa NW 2.2mph /  3.5km/h 11mph /  17.7km/h 69.3% 0.00in /  0mm 83 W/m2
13:54 51.9 °F /  11.1 °C 42.2 °F /  5.7 °C 29.74in /  1007hPa NW 4.6mph /  7.4km/h 13mph /  20.9km/h 69.3% 0.00in /  0mm 60 W/m2
13:59 51.5 °F /  10.8 °C 41.8 °F /  5.4 °C 29.74in /  1007hPa WNW 4.1mph /  6.6km/h 13mph /  20.9km/h 69.4% 0.00in /  0mm 54 W/m2
14:04 51 °F /  10.6 °C 41.6 °F /  5.3 °C 29.74in /  1007hPa NW 2.2mph /  3.5km/h 13mph /  20.9km/h 70% 0.00in /  0mm 69 W/m2
14:09 50.6 °F /  10.3 °C 41 °F /  5 °C 29.75in /  1007.3hPa WNW 3.8mph /  6.1km/h 11mph /  17.7km/h 69.5% 0.00in /  0mm 69 W/m2
14:14 50.2 °F /  10.1 °C 41 °F /  5 °C 29.75in /  1007.3hPa WNW 1.1mph /  1.8km/h 11mph /  17.7km/h 70.4% 0.00in /  0mm 49 W/m2
14:19 50 °F /  10 °C 40.7 °F /  4.8 °C 29.75in /  1007.3hPa NW 1.9mph /  3.1km/h 11mph /  17.7km/h 70.4% 0.00in /  0mm 44 W/m2
14:24 49.7 °F /  9.8 °C 40.6 °F /  4.8 °C 29.75in /  1007.3hPa NW 2.9mph /  4.7km/h 11mph /  17.7km/h 70.8% 0.00in /  0mm 39 W/m2
14:29 49.4 °F /  9.7 °C 40.4 °F /  4.7 °C 29.75in /  1007.3hPa NW 3.1mph /  5km/h 12mph /  19.3km/h 71% 0.00in /  0mm 39 W/m2
14:34 49.1 °F /  9.5 °C 40.4 °F /  4.7 °C 29.76in /  1007.7hPa NW 5.6mph /  9km/h 15mph /  24.1km/h 71.6% 0.00in /  0mm 25 W/m2
14:39 48.8 °F /  9.3 °C 40.1 °F /  4.5 °C 29.76in /  1007.7hPa NW 4.8mph /  7.7km/h 15mph /  24.1km/h 72% 0.00in /  0mm 32 W/m2
14:44 48.4 °F /  9.1 °C 39.8 °F /  4.3 °C 29.76in /  1007.7hPa NW 5.9mph /  9.5km/h 15mph /  24.1km/h 72% 0.00in /  0mm 44 W/m2
14:49 48 °F /  8.9 °C 39.4 °F /  4.1 °C 29.76in /  1007.7hPa NW 5.5mph /  8.9km/h 15mph /  24.1km/h 72% 0.00in /  0mm 51 W/m2
14:54 47.7 °F /  8.7 °C 39.2 °F /  4 °C 29.76in /  1007.7hPa NW 4.6mph /  7.4km/h 15mph /  24.1km/h 72.2% 0.00in /  0mm 56 W/m2
14:59 47.5 °F /  8.6 °C 39.3 °F /  4.1 °C 29.77in /  1008hPa NW 3.3mph /  5.3km/h 15mph /  24.1km/h 72.8% 0.00in /  0mm 60 W/m2
15:04 47.4 °F /  8.6 °C 39.2 °F /  4 °C 29.77in /  1008hPa NW 3.2mph /  5.1km/h 15mph /  24.1km/h 73% 0.00in /  0mm 60 W/m2
15:09 47.2 °F /  8.4 °C 38.8 °F /  3.8 °C 29.77in /  1008hPa NW 6.7mph /  10.8km/h 15mph /  24.1km/h 72.3% 0.00in /  0mm 56 W/m2
15:14 47 °F /  8.3 °C 38.5 °F /  3.6 °C 29.77in /  1008hPa NW 2.8mph /  4.5km/h 15mph /  24.1km/h 72% 0.00in /  0mm 51 W/m2
15:19 46.8 °F /  8.2 °C 38 °F /  3.3 °C 29.77in /  1008hPa NW 4.7mph /  7.6km/h 15mph /  24.1km/h 71.2% 0.00in /  0mm 44 W/m2
15:24 46.6 °F /  8.1 °C 37.4 °F /  3 °C 29.77in /  1008hPa NNW 5mph /  8km/h 15mph /  24.1km/h 70.1% 0.00in /  0mm 44 W/m2
15:29 46.3 °F /  7.9 °C 37.3 °F /  2.9 °C 29.78in /  1008.4hPa NNW 4.1mph /  6.6km/h 15mph /  24.1km/h 70.6% 0.00in /  0mm 39 W/m2
15:34 46 °F /  7.8 °C 37 °F /  2.8 °C 29.78in /  1008.4hPa NW 4.2mph /  6.8km/h 18mph /  29km/h 70.5% 0.00in /  0mm 35 W/m2
15:39 45.8 °F /  7.7 °C 36.8 °F /  2.7 °C 29.77in /  1008hPa NW 5.9mph /  9.5km/h 18mph /  29km/h 70.8% 0.00in /  0mm 25 W/m2
15:44 45.5 °F /  7.5 °C 36.6 °F /  2.6 °C 29.77in /  1008hPa NW 7.8mph /  12.6km/h 18mph /  29km/h 70.8% 0.00in /  0mm 25 W/m2
15:49 45.2 °F /  7.3 °C 36.2 °F /  2.3 °C 29.78in /  1008.4hPa NW 5.2mph /  8.4km/h 18mph /  29km/h 70.6% 0.00in /  0mm 21 W/m2
15:54 45 °F /  7.2 °C 36.2 °F /  2.3 °C 29.78in /  1008.4hPa WNW 3.9mph /  6.3km/h 18mph /  29km/h 71% 0.00in /  0mm 18 W/m2
15:59 44.9 °F /  7.2 °C 36.1 °F /  2.3 °C 29.79in /  1008.7hPa WNW 4.6mph /  7.4km/h 18mph /  29km/h 71% 0.00in /  0mm 14 W/m2
16:00 44.8 °F /  7.1 °C 36 °F /  2.2 °C 29.79in /  1008.7hPa NW 4mph /  6.4km/h 18mph /  29km/h 71% 0.00in /  0mm 12 W/m2
16:09 44.6 °F /  7 °C 35.8 °F /  2.1 °C 29.79in /  1008.7hPa NW 4.6mph /  7.4km/h 15mph /  24.1km/h 71% 0.00in /  0mm 12 W/m2
16:14 44.5 °F /  6.9 °C 35.7 °F /  2.1 °C 29.79in /  1008.7hPa NW 5.4mph /  8.7km/h 15mph /  24.1km/h 71% 0.00in /  0mm 12 W/m2
16:19 44.3 °F /  6.8 °C 35.4 °F /  1.9 °C 29.80in /  1009hPa NW 6.6mph /  10.6km/h 15mph /  24.1km/h 70.7% 0.00in /  0mm 11 W/m2
16:24 44 °F /  6.7 °C 34.7 °F /  1.5 °C 29.80in /  1009hPa NW 7.7mph /  12.4km/h 20mph /  32.2km/h 69.5% 0.00in /  0mm 11 W/m2
16:29 43.7 °F /  6.5 °C 34.1 °F /  1.2 °C 29.80in /  1009hPa NW 8.2mph /  13.2km/h 20mph /  32.2km/h 68.6% 0.00in /  0mm 7 W/m2
16:34 43.4 °F /  6.3 °C 33.3 °F /  0.7 °C 29.81in /  1009.4hPa NW 7.7mph /  12.4km/h 20mph /  32.2km/h 67.3% 0.00in /  0mm 0 W/m2
16:39 43 °F /  6.1 °C 32.7 °F /  0.4 °C 29.81in /  1009.4hPa NW 6.9mph /  11.1km/h 16mph /  25.7km/h 66.6% 0.00in /  0mm 0 W/m2
16:44 42.8 °F /  6 °C 32.3 °F /  0.2 °C 29.81in /  1009.4hPa NW 5.9mph /  9.5km/h 16mph /  25.7km/h 66.3% 0.00in /  0mm 0 W/m2
16:49 42.5 °F /  5.8 °C 32.2 °F /  0.1 °C 29.81in /  1009.4hPa NW 4.7mph /  7.6km/h 16mph /  25.7km/h 66.5% 0.00in /  0mm 0 W/m2
16:54 42.4 °F /  5.8 °C 32.1 °F /  0.1 °C 29.81in /  1009.4hPa NW 2.9mph /  4.7km/h 16mph /  25.7km/h 66.7% 0.00in /  0mm 0 W/m2
16:59 42.2 °F /  5.7 °C 31.8 °F /  -0.1 °C 29.82in /  1009.7hPa NW 3.5mph /  5.6km/h 16mph /  25.7km/h 66.4% 0.00in /  0mm 0 W/m2
17:04 42.1 °F /  5.6 °C 31.4 °F /  -0.3 °C 29.82in /  1009.7hPa NW 4.5mph /  7.2km/h 16mph /  25.7km/h 65.6% 0.00in /  0mm 0 W/m2
17:09 41.9 °F /  5.5 °C 31 °F /  -0.6 °C 29.82in /  1009.7hPa NNW 4.8mph /  7.7km/h 12mph /  19.3km/h 65% 0.00in /  0mm 0 W/m2
17:14 41.8 °F /  5.4 °C 30.5 °F /  -0.8 °C 29.82in /  1009.7hPa NNW 4.8mph /  7.7km/h 12mph /  19.3km/h 64.1% 0.00in /  0mm 0 W/m2
17:19 41.6 °F /  5.3 °C 29.6 °F /  -1.3 °C 29.82in /  1009.7hPa NW 4.2mph /  6.8km/h 13mph /  20.9km/h 62.2% 0.00in /  0mm 0 W/m2
17:24 41.5 °F /  5.3 °C 29.1 °F /  -1.6 °C 29.82in /  1009.7hPa NW 4.3mph /  6.9km/h 14mph /  22.5km/h 61% 0.00in /  0mm 0 W/m2
17:29 41.4 °F /  5.2 °C 29 °F /  -1.7 °C 29.83in /  1010hPa NW 3.7mph /  6km/h 14mph /  22.5km/h 61% 0.00in /  0mm 0 W/m2
17:34 41.3 °F /  5.2 °C 28.9 °F /  -1.7 °C 29.83in /  1010hPa NW 1.3mph /  2.1km/h 14mph /  22.5km/h 61% 0.00in /  0mm 0 W/m2
17:39 41.2 °F /  5.1 °C 28.8 °F /  -1.8 °C 29.83in /  1010hPa NNW 3.2mph /  5.1km/h 12mph /  19.3km/h 61% 0.00in /  0mm 0 W/m2
17:44 41.1 °F /  5.1 °C 28.7 °F /  -1.8 °C 29.83in /  1010hPa NNW 2.7mph /  4.3km/h 12mph /  19.3km/h 61% 0.00in /  0mm 0 W/m2
17:49 41 °F /  5 °C 28.9 °F /  -1.7 °C 29.84in /  1010.4hPa NW 0.5mph /  0.8km/h 12mph /  19.3km/h 61.7% 0.00in /  0mm 0 W/m2
17:54 40.9 °F /  4.9 °C 28.9 °F /  -1.7 °C 29.84in /  1010.4hPa NW 2.8mph /  4.5km/h 12mph /  19.3km/h 62% 0.00in /  0mm 0 W/m2
17:59 40.8 °F /  4.9 °C 28.8 °F /  -1.8 °C 29.84in /  1010.4hPa NNW 3.8mph /  6.1km/h 13mph /  20.9km/h 62% 0.00in /  0mm 0 W/m2
18:04 40.7 °F /  4.8 °C 28.7 °F /  -1.8 °C 29.84in /  1010.4hPa NW 3.1mph /  5km/h 13mph /  20.9km/h 62% 0.00in /  0mm 0 W/m2
18:09 40.6 °F /  4.8 °C 28.7 °F /  -1.8 °C 29.84in /  1010.4hPa NNW 2.5mph /  4km/h 9mph /  14.5km/h 62.3% 0.00in /  0mm 0 W/m2
18:14 40.5 °F /  4.7 °C 28.8 °F /  -1.8 °C 29.84in /  1010.4hPa NW 2.5mph /  4km/h 10mph /  16.1km/h 62.8% 0.00in /  0mm 0 W/m2
18:19 40.3 °F /  4.6 °C 28.3 °F /  -2.1 °C 29.84in /  1010.4hPa NW 5.3mph /  8.5km/h 17mph /  27.4km/h 61.9% 0.00in /  0mm 0 W/m2
18:24 40.2 °F /  4.6 °C 27.5 °F /  -2.5 °C 29.84in /  1010.4hPa NNW 5.9mph /  9.5km/h 17mph /  27.4km/h 60.3% 0.00in /  0mm 0 W/m2
18:29 40 °F /  4.4 °C 26.8 °F /  -2.9 °C 29.84in /  1010.4hPa NW 7.3mph /  11.7km/h 17mph /  27.4km/h 58.7% 0.00in /  0mm 0 W/m2
18:34 40 °F /  4.4 °C 26.4 °F /  -3.1 °C 29.84in /  1010.4hPa NW 7.3mph /  11.7km/h 17mph /  27.4km/h 58% 0.00in /  0mm 0 W/m2
18:39 39.9 °F /  4.4 °C 26.2 °F /  -3.2 °C 29.85in /  1010.7hPa NW 7.4mph /  11.9km/h 17mph /  27.4km/h 57.8% 0.00in /  0mm 0 W/m2
18:44 39.8 °F /  4.3 °C 26 °F /  -3.3 °C 29.85in /  1010.7hPa NW 5.3mph /  8.5km/h 17mph /  27.4km/h 57.5% 0.00in /  0mm 0 W/m2
18:49 39.7 °F /  4.3 °C 26.1 °F /  -3.3 °C 29.85in /  1010.7hPa NW 5.8mph /  9.3km/h 17mph /  27.4km/h 58% 0.00in /  0mm 0 W/m2
18:54 39.5 °F /  4.2 °C 25.9 °F /  -3.4 °C 29.85in /  1010.7hPa NNW 5.2mph /  8.4km/h 17mph /  27.4km/h 57.8% 0.00in /  0mm 0 W/m2
18:59 39.4 °F /  4.1 °C 25.9 °F /  -3.4 °C 29.85in /  1010.7hPa NNW 5.3mph /  8.5km/h 17mph /  27.4km/h 58% 0.00in /  0mm 0 W/m2
19:04 39.3 °F /  4.1 °C 25.5 °F /  -3.6 °C 29.85in /  1010.7hPa NW 4.9mph /  7.9km/h 17mph /  27.4km/h 57.5% 0.00in /  0mm 0 W/m2
19:09 39.2 °F /  4 °C 25.6 °F /  -3.6 °C 29.85in /  1010.7hPa NW 5.9mph /  9.5km/h 15mph /  24.1km/h 57.8% 0.00in /  0mm 0 W/m2
19:14 39 °F /  3.9 °C 25.5 °F /  -3.6 °C 29.85in /  1010.7hPa NNW 4.2mph /  6.8km/h 15mph /  24.1km/h 58% 0.00in /  0mm 0 W/m2
19:19 38.9 °F /  3.8 °C 25.5 °F /  -3.6 °C 29.86in /  1011.1hPa NNW 1.6mph /  2.6km/h 15mph /  24.1km/h 58.2% 0.00in /  0mm 0 W/m2
19:24 38.8 °F /  3.8 °C 25.3 °F /  -3.7 °C 29.85in /  1010.7hPa NW 5.6mph /  9km/h 15mph /  24.1km/h 58.1% 0.00in /  0mm 0 W/m2
19:29 38.7 °F /  3.7 °C 25.4 °F /  -3.7 °C 29.85in /  1010.7hPa NNW 4.2mph /  6.8km/h 15mph /  24.1km/h 58.4% 0.00in /  0mm 0 W/m2
19:34 38.6 °F /  3.7 °C 25.5 °F /  -3.6 °C 29.86in /  1011.1hPa NNW 3.2mph /  5.1km/h 15mph /  24.1km/h 59% 0.00in /  0mm 0 W/m2
19:39 38.4 °F /  3.6 °C 25.4 °F /  -3.7 °C 29.86in /  1011.1hPa NW 2.5mph /  4km/h 10mph /  16.1km/h 59% 0.00in /  0mm 0 W/m2
19:44 38.3 °F /  3.5 °C 25.4 °F /  -3.7 °C 29.86in /  1011.1hPa NW 1.2mph /  1.9km/h 10mph /  16.1km/h 59.3% 0.00in /  0mm 0 W/m2
19:49 38.2 °F /  3.4 °C 25.5 °F /  -3.6 °C 29.86in /  1011.1hPa NNW 0.9mph /  1.4km/h 10mph /  16.1km/h 59.9% 0.00in /  0mm 0 W/m2
19:54 38 °F /  3.3 °C 25.4 °F /  -3.7 °C 29.86in /  1011.1hPa NNW 0.1mph /  0.2km/h 10mph /  16.1km/h 60% 0.00in /  0mm 0 W/m2
19:59 37.9 °F /  3.3 °C 25.4 °F /  -3.7 °C 29.86in /  1011.1hPa NW 1.3mph /  2.1km/h 10mph /  16.1km/h 60.4% 0.00in /  0mm 0 W/m2
20:00 37.8 °F /  3.2 °C 25.6 °F /  -3.6 °C 29.86in /  1011.1hPa NW 2mph /  3.2km/h 10mph /  16.1km/h 61% 0.00in /  0mm 0 W/m2
20:09 37.5 °F /  3.1 °C 25.2 °F /  -3.8 °C 29.86in /  1011.1hPa NW 1.2mph /  1.9km/h 6mph /  9.7km/h 60.8% 0.00in /  0mm 0 W/m2
20:14 37.4 °F /  3 °C 25.2 °F /  -3.8 °C 29.86in /  1011.1hPa NW 2.6mph /  4.2km/h 10mph /  16.1km/h 61% 0.00in /  0mm 0 W/m2
20:19 37.3 °F /  2.9 °C 25.2 °F /  -3.8 °C 29.86in /  1011.1hPa NW 0.5mph /  0.8km/h 10mph /  16.1km/h 61.3% 0.00in /  0mm 0 W/m2
20:24 37.2 °F /  2.9 °C 25.4 °F /  -3.7 °C 29.87in /  1011.4hPa NW 0.4mph /  0.6km/h 10mph /  16.1km/h 62% 0.00in /  0mm 0 W/m2
20:29 37.1 °F /  2.8 °C 25.3 °F /  -3.7 °C 29.87in /  1011.4hPa NW 1.1mph /  1.8km/h 10mph /  16.1km/h 62% 0.00in /  0mm 0 W/m2
20:34 37 °F /  2.8 °C 25.2 °F /  -3.8 °C 29.87in /  1011.4hPa NW 0.1mph /  0.2km/h 10mph /  16.1km/h 62% 0.00in /  0mm 0 W/m2
20:39 36.9 °F /  2.7 °C 25.3 °F /  -3.7 °C 29.87in /  1011.4hPa NW 0.3mph /  0.5km/h 3mph /  4.8km/h 62.6% 0.00in /  0mm 0 W/m2
20:44 36.8 °F /  2.7 °C 25.2 °F /  -3.8 °C 29.88in /  1011.7hPa NW 1.4mph /  2.3km/h 4mph /  6.4km/h 62.6% 0.00in /  0mm 0 W/m2
20:49 36.6 °F /  2.6 °C 25.4 °F /  -3.7 °C 29.88in /  1011.7hPa NW 0.1mph /  0.2km/h 4mph /  6.4km/h 63.3% 0.00in /  0mm 0 W/m2
20:54 36.5 °F /  2.5 °C 25.5 °F /  -3.6 °C 29.88in /  1011.7hPa North 2mph /  3.2km/h 9mph /  14.5km/h 64% 0.00in /  0mm 0 W/m2
20:59 36.5 °F /  2.5 °C 25.5 °F /  -3.6 °C 29.88in /  1011.7hPa NW 1.4mph /  2.3km/h 9mph /  14.5km/h 64% 0.00in /  0mm 0 W/m2
21:04 36.5 °F /  2.5 °C 25.5 °F /  -3.6 °C 29.88in /  1011.7hPa NW 4.1mph /  6.6km/h 12mph /  19.3km/h 64% 0.00in /  0mm 0 W/m2
21:09 36.6 °F /  2.6 °C 25.6 °F /  -3.6 °C 29.89in /  1012.1hPa NNW 4.4mph /  7.1km/h 14mph /  22.5km/h 64% 0.00in /  0mm 0 W/m2
21:14 36.7 °F /  2.6 °C 25.6 °F /  -3.6 °C 29.89in /  1012.1hPa NW 3.2mph /  5.1km/h 14mph /  22.5km/h 64% 0.00in /  0mm 0 W/m2
21:19 36.8 °F /  2.7 °C 25.8 °F /  -3.4 °C 29.89in /  1012.1hPa NW 4.7mph /  7.6km/h 14mph /  22.5km/h 64.2% 0.00in /  0mm 0 W/m2
21:24 36.8 °F /  2.7 °C 25.8 °F /  -3.4 °C 29.89in /  1012.1hPa NW 3.4mph /  5.5km/h 14mph /  22.5km/h 64% 0.00in /  0mm 0 W/m2
21:29 36.9 °F /  2.7 °C 25.8 °F /  -3.4 °C 29.90in /  1012.4hPa NNW 3.3mph /  5.3km/h 14mph /  22.5km/h 64% 0.00in /  0mm 0 W/m2
21:34 36.8 °F /  2.7 °C 25.8 °F /  -3.4 °C 29.90in /  1012.4hPa NW 2.9mph /  4.7km/h 14mph /  22.5km/h 64% 0.00in /  0mm 0 W/m2
21:39 36.8 °F /  2.7 °C 25.8 °F /  -3.4 °C 29.90in /  1012.4hPa NW 1.2mph /  1.9km/h 7mph /  11.3km/h 64% 0.00in /  0mm 0 W/m2
21:44 36.7 °F /  2.6 °C 25.7 °F /  -3.5 °C 29.89in /  1012.1hPa NW 2.6mph /  4.2km/h 11mph /  17.7km/h 64% 0.00in /  0mm 0 W/m2
21:49 36.7 °F /  2.6 °C 25.9 °F /  -3.4 °C 29.89in /  1012.1hPa NNW 2mph /  3.2km/h 11mph /  17.7km/h 64.6% 0.00in /  0mm 0 W/m2
21:54 36.6 °F /  2.6 °C 26 °F /  -3.3 °C 29.89in /  1012.1hPa NW 1.6mph /  2.6km/h 11mph /  17.7km/h 65% 0.00in /  0mm 0 W/m2
21:59 36.6 °F /  2.6 °C 26 °F /  -3.3 °C 29.89in /  1012.1hPa NW 3.4mph /  5.5km/h 11mph /  17.7km/h 65% 0.00in /  0mm 0 W/m2
22:04 36.5 °F /  2.5 °C 25.8 °F /  -3.4 °C 29.88in /  1011.7hPa NW 2.2mph /  3.5km/h 11mph /  17.7km/h 64.8% 0.00in /  0mm 0 W/m2
22:09 36.5 °F /  2.5 °C 25.9 °F /  -3.4 °C 29.88in /  1011.7hPa NW 3.5mph /  5.6km/h 8mph /  12.9km/h 65% 0.00in /  0mm 0 W/m2
22:14 36.4 °F /  2.4 °C 25.7 °F /  -3.5 °C 29.88in /  1011.7hPa NW 4.4mph /  7.1km/h 12mph /  19.3km/h 64.8% 0.00in /  0mm 0 W/m2
22:19 36.3 °F /  2.4 °C 25.5 °F /  -3.6 °C 29.88in /  1011.7hPa NW 4.3mph /  6.9km/h 12mph /  19.3km/h 64.5% 0.00in /  0mm 0 W/m2
22:24 36.3 °F /  2.4 °C 25.7 °F /  -3.5 °C 29.88in /  1011.7hPa NW 3.5mph /  5.6km/h 12mph /  19.3km/h 65% 0.00in /  0mm 0 W/m2
22:29 36.2 °F /  2.3 °C 25.6 °F /  -3.6 °C 29.88in /  1011.7hPa NW 5.1mph /  8.2km/h 12mph /  19.3km/h 65% 0.00in /  0mm 0 W/m2
22:34 36.1 °F /  2.3 °C 25.5 °F /  -3.6 °C 29.88in /  1011.7hPa NW 1.8mph /  2.9km/h 12mph /  19.3km/h 65% 0.00in /  0mm 0 W/m2
22:39 36 °F /  2.2 °C 25.4 °F /  -3.7 °C 29.88in /  1011.7hPa NW 1.5mph /  2.4km/h 7mph /  11.3km/h 65% 0.00in /  0mm 0 W/m2
22:44 35.9 °F /  2.2 °C 25.3 °F /  -3.7 °C 29.88in /  1011.7hPa NW 2.5mph /  4km/h 11mph /  17.7km/h 65% 0.00in /  0mm 0 W/m2
22:49 35.9 °F /  2.2 °C 25.3 °F /  -3.7 °C 29.88in /  1011.7hPa NW 2.6mph /  4.2km/h 11mph /  17.7km/h 65.2% 0.00in /  0mm 0 W/m2
22:54 35.8 °F /  2.1 °C 25.4 °F /  -3.7 °C 29.88in /  1011.7hPa NW 3.3mph /  5.3km/h 11mph /  17.7km/h 65.7% 0.00in /  0mm 0 W/m2
22:59 35.7 °F /  2.1 °C 25.3 °F /  -3.7 °C 29.87in /  1011.4hPa NW 3mph /  4.8km/h 11mph /  17.7km/h 65.5% 0.00in /  0mm 0 W/m2
23:09 35.6 °F /  2 °C 25.4 °F /  -3.7 °C 29.87in /  1011.4hPa NW 2.5mph /  4km/h 10mph /  16.1km/h 66% 0.00in /  0mm 0 W/m2
23:14 35.5 °F /  1.9 °C 25.3 °F /  -3.7 °C 29.87in /  1011.4hPa NNW 2.5mph /  4km/h 10mph /  16.1km/h 66% 0.00in /  0mm 0 W/m2
23:19 35.4 °F /  1.9 °C 25.2 °F /  -3.8 °C 29.87in /  1011.4hPa NW 0.7mph /  1.1km/h 10mph /  16.1km/h 66% 0.00in /  0mm 0 W/m2
23:24 35.3 °F /  1.8 °C 25.1 °F /  -3.8 °C 29.87in /  1011.4hPa NW 2.3mph /  3.7km/h 10mph /  16.1km/h 66% 0.00in /  0mm 0 W/m2
23:29 35.2 °F /  1.8 °C 25.1 °F /  -3.8 °C 29.87in /  1011.4hPa NNW 1.6mph /  2.6km/h 10mph /  16.1km/h 66.4% 0.00in /  0mm 0 W/m2
23:34 35.1 °F /  1.7 °C 25.3 °F /  -3.7 °C 29.87in /  1011.4hPa NNW 1mph /  1.6km/h 10mph /  16.1km/h 67% 0.00in /  0mm 0 W/m2
23:39 35 °F /  1.7 °C 25.2 °F /  -3.8 °C 29.87in /  1011.4hPa NNW 1mph /  1.6km/h 6mph /  9.7km/h 67% 0.00in /  0mm 0 W/m2
23:44 34.9 °F /  1.6 °C 25.1 °F /  -3.8 °C 29.87in /  1011.4hPa NNW 0.8mph /  1.3km/h 6mph /  9.7km/h 67% 0.00in /  0mm 0 W/m2
23:49 34.8 °F /  1.6 °C 25 °F /  -3.9 °C 29.87in /  1011.4hPa NW 1.1mph /  1.8km/h 6mph /  9.7km/h 67% 0.00in /  0mm 0 W/m2
23:54 34.7 °F /  1.5 °C 24.9 °F /  -3.9 °C 29.87in /  1011.4hPa NW 1.6mph /  2.6km/h 6mph /  9.7km/h 67% 0.00in /  0mm 0 W/m2
23:59 34.6 °F /  1.4 °C 25 °F /  -3.9 °C 29.87in /  1011.4hPa NW 0.7mph /  1.1km/h 6mph /  9.7km/h 67.6% 0.00in /  0mm 0 W/m2
Hartford County Weather
Compliments of Weather Underground - 2 mb